createdAt,value
2018-09-05T00:01:31.260Z,15.73
2018-09-05T00:03:59.758Z,15.50
2018-09-05T00:06:28.309Z,15.80
2018-09-05T00:08:57.096Z,16.70
2018-09-05T00:11:25.621Z,15.77
2018-09-05T00:13:54.149Z,16.30
2018-09-05T00:16:22.674Z,15.43
2018-09-05T00:18:51.216Z,15.50
2018-09-05T00:21:19.733Z,16.77
2018-09-05T00:23:48.274Z,16.07
2018-09-05T00:26:16.768Z,16.43
2018-09-05T00:28:45.322Z,15.27
2018-09-05T00:31:13.836Z,16.60
2018-09-05T00:33:42.384Z,16.33
2018-09-05T00:36:10.886Z,16.30
2018-09-05T00:38:39.412Z,16.00
2018-09-05T00:41:07.973Z,16.13
2018-09-05T00:43:36.643Z,16.30
2018-09-05T00:46:05.265Z,16.23
2018-09-05T00:48:33.815Z,16.87
2018-09-05T00:51:02.320Z,16.67
2018-09-05T00:53:30.912Z,18.50
2018-09-05T00:55:59.421Z,18.20
2018-09-05T00:58:28.036Z,18.47
2018-09-05T01:00:56.541Z,18.60
2018-09-05T01:03:25.072Z,18.00
2018-09-05T01:05:53.590Z,16.90
2018-09-05T01:08:22.121Z,16.80
2018-09-05T01:10:50.628Z,19.20
2018-09-05T01:13:19.146Z,17.70
2018-09-05T01:15:47.661Z,17.50
2018-09-05T01:18:16.153Z,17.70
2018-09-05T01:20:44.741Z,19.30
2018-09-05T01:23:13.245Z,28.83
2018-09-05T01:25:41.794Z,20.63
2018-09-05T01:28:10.306Z,22.30
2018-09-05T01:30:38.824Z,22.57
2018-09-05T01:33:07.320Z,23.33
2018-09-05T01:35:35.897Z,21.83
2018-09-05T01:38:04.403Z,20.97
2018-09-05T01:40:32.938Z,22.30
2018-09-05T01:43:01.437Z,22.13
2018-09-05T01:45:30.003Z,22.13
2018-09-05T01:47:58.514Z,22.47
2018-09-05T01:50:32.444Z,22.30
2018-09-05T01:53:01.005Z,21.97
2018-09-05T01:55:29.505Z,21.80
2018-09-05T01:57:58.020Z,22.30
2018-09-05T02:00:31.900Z,21.77
2018-09-05T02:03:00.465Z,22.73
2018-09-05T02:05:28.977Z,21.33
2018-09-05T02:07:57.501Z,23.40
2018-09-05T02:10:26.002Z,23.00
2018-09-05T02:12:54.540Z,21.50
2018-09-05T02:15:23.148Z,22.53
2018-09-05T02:17:51.675Z,21.00
2018-09-05T02:20:20.173Z,20.77
2018-09-05T02:22:48.905Z,20.27
2018-09-05T02:25:17.404Z,20.30
2018-09-05T02:27:45.996Z,18.63
2018-09-05T02:30:14.533Z,20.13
2018-09-05T02:32:43.029Z,19.03
2018-09-05T02:35:11.557Z,21.00
2018-09-05T02:37:40.105Z,20.30
2018-09-05T02:40:08.827Z,19.80
2018-09-05T02:42:37.357Z,18.97
2018-09-05T02:45:05.932Z,20.30
2018-09-05T02:47:34.404Z,19.50
2018-09-05T02:50:03.028Z,17.50
2018-09-05T02:52:31.855Z,23.93
2018-09-05T02:55:00.321Z,42.57
2018-09-05T02:57:28.761Z,19.67
2018-09-05T02:59:57.207Z,20.40
2018-09-05T03:02:25.794Z,18.60
2018-09-05T03:04:54.796Z,18.70
2018-09-05T03:07:23.260Z,17.30
2018-09-05T03:09:51.691Z,18.83
2018-09-05T03:12:21.377Z,17.77
2018-09-05T03:14:51.159Z,18.30
2018-09-05T03:17:19.972Z,17.90
2018-09-05T03:19:48.416Z,17.87
2018-09-05T03:22:16.931Z,18.17
2018-09-05T03:24:45.419Z,19.03
2018-09-05T03:27:13.861Z,17.23
2018-09-05T03:29:42.332Z,17.40
2018-09-05T03:32:10.845Z,17.40
2018-09-05T03:34:39.291Z,18.20
2018-09-05T03:37:07.852Z,18.30
2018-09-05T03:39:36.324Z,17.53
2018-09-05T03:42:04.828Z,18.43
2018-09-05T03:44:33.299Z,17.60
2018-09-05T03:47:01.737Z,18.50
2018-09-05T03:49:30.224Z,18.37
2018-09-05T03:51:58.680Z,19.37
2018-09-05T03:54:27.205Z,18.33
2018-09-05T03:56:55.660Z,19.30
2018-09-05T03:59:24.147Z,19.73
2018-09-05T04:01:52.624Z,19.30
2018-09-05T04:04:21.061Z,20.57
2018-09-05T04:06:49.548Z,19.43
2018-09-05T04:09:18.070Z,20.13
2018-09-05T04:11:46.732Z,21.40
2018-09-05T04:14:15.167Z,23.73
2018-09-05T04:16:43.636Z,22.90
2018-09-05T04:19:12.084Z,23.53
2018-09-05T04:21:40.555Z,22.77
2018-09-05T04:24:08.984Z,22.37
2018-09-05T04:26:37.456Z,22.73
2018-09-05T04:29:06.032Z,25.57
2018-09-05T04:31:34.499Z,25.93
2018-09-05T04:34:02.944Z,23.30
2018-09-05T04:36:31.436Z,23.73
2018-09-05T04:38:59.915Z,24.77
2018-09-05T04:41:28.344Z,23.77
2018-09-05T04:43:56.836Z,22.60
2018-09-05T04:46:25.276Z,23.40
2018-09-05T04:48:53.736Z,23.80
2018-09-05T04:51:22.172Z,22.83
2018-09-05T04:53:50.632Z,22.30
2018-09-05T04:56:19.083Z,23.83
2018-09-05T04:58:47.544Z,25.80
2018-09-05T05:01:15.988Z,25.37
2018-09-05T05:03:44.476Z,26.87
2018-09-05T05:06:12.918Z,29.37
2018-09-05T05:08:41.392Z,27.50
2018-09-05T05:11:09.851Z,26.60
2018-09-05T05:13:38.291Z,25.27
2018-09-05T05:16:07.212Z,26.37
2018-09-05T05:18:35.676Z,25.40
2018-09-05T05:21:04.180Z,24.53
2018-09-05T05:23:32.673Z,24.40
2018-09-05T05:26:01.123Z,24.17
2018-09-05T05:28:29.580Z,24.40
2018-09-05T05:30:58.049Z,24.40
2018-09-05T05:33:26.526Z,24.77
2018-09-05T05:35:55.024Z,25.50
2018-09-05T05:38:23.467Z,24.97
2018-09-05T05:40:51.911Z,24.23
2018-09-05T05:43:20.396Z,25.30
2018-09-05T05:45:48.880Z,26.53
2018-09-05T05:48:17.335Z,24.40
2018-09-05T05:50:45.803Z,26.20
2018-09-05T05:53:14.272Z,28.00
2018-09-05T05:55:42.740Z,25.77
2018-09-05T05:58:11.188Z,24.80
2018-09-05T06:00:39.664Z,25.53
2018-09-05T06:03:08.173Z,25.80
2018-09-05T06:05:36.676Z,25.40
2018-09-05T06:08:05.168Z,22.00
2018-09-05T06:10:33.636Z,24.30
2018-09-05T06:13:02.106Z,25.27
2018-09-05T06:15:30.607Z,23.20
2018-09-05T06:17:59.252Z,22.93
2018-09-05T06:20:27.716Z,23.70
2018-09-05T06:22:56.156Z,23.83
2018-09-05T06:25:24.616Z,22.37
2018-09-05T06:27:53.173Z,21.83
2018-09-05T06:30:21.570Z,24.47
2018-09-05T06:32:50.092Z,24.37
2018-09-05T06:35:18.571Z,23.50
2018-09-05T06:37:47.048Z,23.17
2018-09-05T06:40:15.492Z,23.13
2018-09-05T06:42:43.952Z,24.90
2018-09-05T06:45:12.436Z,23.27
2018-09-05T06:47:40.933Z,23.67
2018-09-05T06:50:09.388Z,25.40
2018-09-05T06:52:37.866Z,23.70
2018-09-05T06:55:06.368Z,23.23
2018-09-05T06:57:34.875Z,25.43
2018-09-05T07:00:03.531Z,24.30
2018-09-05T07:02:33.245Z,24.73
2018-09-05T07:05:01.949Z,26.57
2018-09-05T07:07:30.588Z,24.93
2018-09-05T07:09:59.304Z,24.80
2018-09-05T07:12:27.724Z,26.73
2018-09-05T07:14:56.248Z,25.07
2018-09-05T07:17:24.790Z,24.40
2018-09-05T07:19:55.387Z,25.43
2018-09-05T07:22:23.863Z,25.97
2018-09-05T07:24:52.386Z,23.93
2018-09-05T07:27:20.786Z,26.30
2018-09-05T07:29:49.258Z,23.53
2018-09-05T07:32:17.700Z,24.20
2018-09-05T07:34:46.331Z,24.40
2018-09-05T07:37:15.127Z,23.80
2018-09-05T07:39:43.584Z,24.33
2018-09-05T07:42:12.072Z,25.10
2018-09-05T07:44:40.527Z,24.40
2018-09-05T07:47:09.031Z,24.23
2018-09-05T07:49:37.560Z,24.07
2018-09-05T07:52:06.002Z,24.17
2018-09-05T07:54:34.488Z,24.10
2018-09-05T07:57:02.988Z,27.30
2018-09-05T07:59:31.467Z,27.47
2018-09-05T08:02:00.004Z,26.80
2018-09-05T08:04:28.547Z,29.00
2018-09-05T08:06:57.020Z,26.33
2018-09-05T08:09:25.480Z,26.73
2018-09-05T08:11:53.928Z,26.80
2018-09-05T08:14:22.408Z,26.10
2018-09-05T08:16:50.853Z,26.30
2018-09-05T08:19:19.317Z,25.77
2018-09-05T08:21:47.787Z,24.50
2018-09-05T08:24:16.362Z,26.17
2018-09-05T08:26:44.828Z,25.37
2018-09-05T08:29:13.299Z,24.07
2018-09-05T08:31:41.763Z,25.00
2018-09-05T08:34:10.231Z,24.33
2018-09-05T08:36:39.052Z,24.00
2018-09-05T08:39:10.416Z,26.67
2018-09-05T08:41:38.905Z,27.10
2018-09-05T08:44:07.531Z,25.50
2018-09-05T08:46:35.831Z,24.63
2018-09-05T08:49:04.287Z,25.70
2018-09-05T08:51:32.730Z,25.67
2018-09-05T08:54:01.446Z,24.10
2018-09-05T08:56:29.965Z,23.63
2018-09-05T08:58:58.460Z,22.50
2018-09-05T09:01:26.910Z,23.53
2018-09-05T09:03:55.385Z,23.33
2018-09-05T09:06:23.847Z,23.13
2018-09-05T09:08:52.321Z,23.20
2018-09-05T09:11:20.776Z,21.60
2018-09-05T09:13:49.243Z,21.37
2018-09-05T09:16:17.687Z,22.00
2018-09-05T09:18:46.207Z,22.40
2018-09-05T09:21:14.796Z,22.97
2018-09-05T09:23:43.241Z,21.77
2018-09-05T09:26:11.717Z,23.53
2018-09-05T09:28:40.171Z,23.47
2018-09-05T09:31:08.640Z,23.00
2018-09-05T09:33:37.119Z,23.10
2018-09-05T09:36:05.598Z,22.57
2018-09-05T09:38:34.124Z,21.50
2018-09-05T09:41:02.598Z,21.80
2018-09-05T09:43:31.056Z,20.20
2018-09-05T09:45:59.743Z,18.77
2018-09-05T09:48:28.192Z,17.73
2018-09-05T09:50:56.648Z,17.43
2018-09-05T09:53:25.120Z,17.13
2018-09-05T09:55:53.568Z,17.47
2018-09-05T09:58:22.087Z,17.30
2018-09-05T10:00:55.852Z,14.30
2018-09-05T10:03:29.822Z,12.93
2018-09-05T10:06:03.460Z,12.93
2018-09-05T10:08:37.199Z,13.80
2018-09-05T10:11:11.016Z,13.30
2018-09-05T10:13:44.803Z,12.50
2018-09-05T10:16:18.424Z,11.73
2018-09-05T10:18:48.964Z,11.27
2018-09-05T10:21:17.404Z,10.63
2018-09-05T10:23:45.888Z,11.20
2018-09-05T10:26:14.535Z,11.53
2018-09-05T10:28:43.015Z,10.50
2018-09-05T10:31:11.476Z,9.60
2018-09-05T10:33:40.171Z,9.55
2018-09-05T10:36:08.636Z,8.70
2018-09-05T10:38:37.084Z,8.00
2018-09-05T10:41:05.573Z,7.40
2018-09-05T10:43:34.012Z,7.17
2018-09-05T10:46:02.481Z,7.75
2018-09-05T10:50:59.528Z,6.97
2018-09-05T10:53:27.963Z,5.80
2018-09-05T10:55:56.437Z,5.97
2018-09-05T10:58:24.885Z,5.37
2018-09-05T11:00:53.376Z,5.50
2018-09-05T11:03:21.816Z,5.40
2018-09-05T11:05:50.304Z,5.67
2018-09-05T11:08:18.764Z,5.60
2018-09-05T11:10:47.281Z,5.33
2018-09-05T11:13:15.920Z,5.17
2018-09-05T11:15:44.363Z,4.75
2018-09-05T11:18:12.819Z,4.78
2018-09-05T11:20:41.284Z,4.10
2018-09-05T11:23:09.752Z,4.55
2018-09-05T11:25:38.200Z,4.28
2018-09-05T11:28:06.712Z,4.50
2018-09-05T11:30:35.192Z,4.78
2018-09-05T11:33:03.653Z,4.33
2018-09-05T11:35:32.136Z,4.25
2018-09-05T11:38:00.571Z,4.20
2018-09-05T11:40:29.079Z,4.15
2018-09-05T11:42:57.521Z,4.00
2018-09-05T11:45:25.995Z,4.55
2018-09-05T11:47:54.431Z,4.50
2018-09-05T11:50:22.899Z,4.65
2018-09-05T11:52:51.341Z,5.28
2018-09-05T11:55:19.812Z,5.03
2018-09-05T11:57:48.280Z,5.15
2018-09-05T12:00:16.731Z,4.70
2018-09-05T12:02:45.272Z,4.60
2018-09-05T12:05:13.734Z,4.55
2018-09-05T12:07:42.192Z,4.85
2018-09-05T12:10:10.732Z,5.03
2018-09-05T12:12:39.316Z,4.28
2018-09-05T12:15:07.760Z,4.80
2018-09-05T12:17:36.260Z,5.17
2018-09-05T12:20:04.873Z,4.22
2018-09-05T12:22:33.336Z,4.62
2018-09-05T12:25:01.786Z,4.35
2018-09-05T12:27:30.291Z,4.50
2018-09-05T12:29:58.736Z,4.33
2018-09-05T12:32:27.206Z,4.08
2018-09-05T12:34:55.646Z,4.42
2018-09-05T12:37:24.111Z,4.35
2018-09-05T12:39:52.556Z,4.37
2018-09-05T12:42:21.035Z,26.93
2018-09-05T12:44:49.539Z,7.70
2018-09-05T12:47:17.963Z,7.53
2018-09-05T12:49:46.402Z,5.22
2018-09-05T12:52:14.843Z,4.72
2018-09-05T12:54:43.369Z,5.67
2018-09-05T12:57:11.871Z,4.90
2018-09-05T12:59:40.328Z,5.78
2018-09-05T13:02:08.764Z,4.77
2018-09-05T13:04:37.220Z,5.33
2018-09-05T13:07:05.706Z,5.17
2018-09-05T13:09:34.204Z,4.80
2018-09-05T13:12:02.708Z,5.77
2018-09-05T13:14:31.164Z,5.58
2018-09-05T13:16:59.628Z,5.37
2018-09-05T13:19:28.108Z,5.35
2018-09-05T13:21:56.549Z,4.85
2018-09-05T13:24:25.006Z,5.40
2018-09-05T13:26:53.465Z,4.95
2018-09-05T13:29:21.928Z,4.97
2018-09-05T13:31:50.369Z,4.97
2018-09-05T13:34:18.832Z,4.90
2018-09-05T13:36:47.272Z,4.80
2018-09-05T13:39:15.756Z,4.65
2018-09-05T13:41:44.196Z,4.70
2018-09-05T13:44:12.660Z,4.42
2018-09-05T13:46:41.112Z,4.55
2018-09-05T13:49:09.619Z,5.17
2018-09-05T13:51:38.284Z,4.47
2018-09-05T13:54:06.795Z,4.80
2018-09-05T13:56:35.253Z,5.05
2018-09-05T13:59:03.735Z,4.45
2018-09-05T14:01:32.208Z,5.17
2018-09-05T14:04:00.660Z,5.03
2018-09-05T14:06:29.132Z,5.22
2018-09-05T14:08:57.571Z,5.83
2018-09-05T14:11:26.028Z,5.23
2018-09-05T14:13:54.483Z,5.43
2018-09-05T14:16:22.941Z,34.73
2018-09-05T14:18:51.388Z,15.87
2018-09-05T14:21:19.847Z,5.40
2018-09-05T14:23:48.411Z,5.93
2018-09-05T14:26:16.899Z,5.83
2018-09-05T14:28:45.344Z,6.10
2018-09-05T14:31:13.859Z,8.53
2018-09-05T14:33:42.355Z,6.90
2018-09-05T14:36:10.834Z,6.23
2018-09-05T14:38:39.263Z,7.03
2018-09-05T14:41:07.787Z,6.40
2018-09-05T14:43:36.228Z,7.30
2018-09-05T14:46:04.677Z,6.87
2018-09-05T14:48:33.159Z,6.80
2018-09-05T14:51:01.624Z,6.03
2018-09-05T14:53:30.089Z,6.03
2018-09-05T14:55:58.563Z,7.30
2018-09-05T14:58:27.028Z,6.40
2018-09-05T15:00:55.515Z,6.30
2018-09-05T15:03:24.007Z,7.17
2018-09-05T15:05:52.452Z,5.90
2018-09-05T15:08:20.900Z,6.73
2018-09-05T15:10:49.379Z,6.90
2018-09-05T15:13:17.836Z,6.70
2018-09-05T15:15:46.275Z,7.17
2018-09-05T15:18:14.731Z,7.00
2018-09-05T15:20:43.192Z,6.30
2018-09-05T15:23:12.034Z,7.07
2018-09-05T15:25:40.511Z,7.03
2018-09-05T15:28:08.956Z,6.27
2018-09-05T15:30:37.415Z,7.37
2018-09-05T15:33:06.083Z,6.90
2018-09-05T15:35:34.610Z,6.83
2018-09-05T15:38:03.057Z,7.20
2018-09-05T15:40:31.512Z,6.27
2018-09-05T15:42:59.960Z,6.43
2018-09-05T15:45:29.295Z,6.70
2018-09-05T15:47:57.930Z,6.83
2018-09-05T15:50:26.416Z,6.13
2018-09-05T15:52:54.861Z,6.70
2018-09-05T15:55:23.352Z,6.73
2018-09-05T15:57:51.844Z,7.43
2018-09-05T16:00:20.335Z,7.70
2018-09-05T16:02:48.760Z,7.57
2018-09-05T16:05:17.228Z,7.23
2018-09-05T16:07:45.669Z,7.70
2018-09-05T16:10:14.139Z,7.20
2018-09-05T16:12:42.588Z,7.70
2018-09-05T16:15:11.073Z,6.90
2018-09-05T16:17:39.489Z,7.67
2018-09-05T16:20:07.999Z,7.00
2018-09-05T16:22:36.547Z,7.43
2018-09-05T16:25:05.032Z,7.10
2018-09-05T16:27:33.500Z,7.20
2018-09-05T16:30:01.958Z,8.00
2018-09-05T16:32:30.455Z,7.13
2018-09-05T16:34:58.905Z,6.90
2018-09-05T16:37:27.360Z,7.40
2018-09-05T16:39:55.783Z,6.90
2018-09-05T16:42:25.328Z,7.37
2018-09-05T16:44:54.744Z,7.57
2018-09-05T16:47:23.200Z,7.13
2018-09-05T16:49:51.636Z,7.20
2018-09-05T16:52:20.147Z,7.70
2018-09-05T16:54:48.646Z,7.47
2018-09-05T16:57:17.156Z,7.93
2018-09-05T16:59:45.681Z,8.63
2018-09-05T17:02:14.396Z,8.30
2018-09-05T17:04:42.828Z,7.70
2018-09-05T17:07:11.600Z,7.57
2018-09-05T17:09:40.122Z,7.33
2018-09-05T17:12:08.875Z,7.83
2018-09-05T17:14:37.340Z,7.77
2018-09-05T17:17:05.846Z,8.50
2018-09-05T17:19:34.315Z,7.57
2018-09-05T17:22:02.994Z,7.80
2018-09-05T17:24:31.708Z,7.40
2018-09-05T17:27:00.195Z,7.40
2018-09-05T17:29:28.647Z,8.23
2018-09-05T17:31:57.111Z,22.17
2018-09-05T17:34:25.616Z,13.40
2018-09-05T17:36:54.091Z,9.27
2018-09-05T17:39:22.593Z,7.63
2018-09-05T17:41:51.121Z,7.83
2018-09-05T17:44:19.551Z,7.83
2018-09-05T17:46:48.015Z,7.53
2018-09-05T17:49:16.457Z,7.43
2018-09-05T17:51:44.931Z,8.03
2018-09-05T17:54:13.403Z,8.47
2018-09-05T17:56:41.883Z,7.37
2018-09-05T17:59:10.391Z,7.90
2018-09-05T18:01:38.960Z,8.80
2018-09-05T18:04:07.431Z,8.13
2018-09-05T18:06:35.883Z,8.33
2018-09-05T18:09:06.052Z,8.00
2018-09-05T18:11:34.511Z,8.57
2018-09-05T18:14:03.024Z,8.07
2018-09-05T18:16:31.461Z,7.97
2018-09-05T18:19:00.236Z,7.70
2018-09-05T18:21:28.741Z,8.50
2018-09-05T18:23:57.620Z,8.83
2018-09-05T18:26:26.070Z,8.60
2018-09-05T18:28:54.579Z,7.90
2018-09-05T18:31:23.051Z,8.80
2018-09-05T18:33:51.565Z,10.70
2018-09-05T18:36:19.965Z,11.27
2018-09-05T18:38:48.920Z,11.70
2018-09-05T18:41:17.392Z,9.17
2018-09-05T18:43:45.823Z,8.90
2018-09-05T18:46:14.435Z,58.23
2018-09-05T18:48:43.037Z,13.40
2018-09-05T18:51:11.519Z,9.17
2018-09-05T18:53:39.956Z,8.70
2018-09-05T18:56:08.476Z,8.20
2018-09-05T18:58:37.088Z,8.30
2018-09-05T19:01:05.592Z,8.60
2018-09-05T19:03:34.158Z,9.30
2018-09-05T19:06:02.867Z,8.83
2018-09-05T19:08:31.817Z,8.47
2018-09-05T19:11:00.291Z,8.70
2018-09-05T19:13:28.787Z,9.20
2018-09-05T19:15:57.644Z,9.00
2018-09-05T19:18:26.318Z,9.10
2018-09-05T19:20:54.754Z,7.90
2018-09-05T19:23:23.260Z,9.60
2018-09-05T19:25:51.692Z,8.90
2018-09-05T19:28:20.160Z,9.50
2018-09-05T19:30:48.600Z,9.93
2018-09-05T19:33:17.131Z,10.40
2018-09-05T19:35:45.564Z,9.97
2018-09-05T19:38:14.107Z,9.60
2018-09-05T19:40:42.683Z,9.67
2018-09-05T19:43:11.411Z,9.37
2018-09-05T19:45:39.960Z,9.47
2018-09-05T19:48:08.482Z,9.53
2018-09-05T19:50:36.983Z,9.33
2018-09-05T19:53:05.636Z,9.03
2018-09-05T19:55:34.096Z,9.87
2018-09-05T19:58:02.544Z,8.83
2018-09-05T20:00:31.019Z,9.60
2018-09-05T20:02:59.569Z,9.70
2018-09-05T20:05:28.039Z,9.10
2018-09-05T20:07:56.484Z,9.80
2018-09-05T20:10:25.418Z,116.97
2018-09-05T20:12:53.880Z,13.10
2018-09-05T20:15:22.375Z,10.40
2018-09-05T20:17:50.819Z,11.23
2018-09-05T20:20:19.324Z,10.20
2018-09-05T20:22:47.811Z,9.50
2018-09-05T20:25:16.248Z,10.40
2018-09-05T20:27:44.699Z,9.93
2018-09-05T20:30:13.164Z,9.90
2018-09-05T20:32:41.628Z,10.20
2018-09-05T20:35:10.076Z,10.57
2018-09-05T20:37:38.528Z,9.90
2018-09-05T20:40:07.123Z,10.20
2018-09-05T20:42:35.792Z,10.40
2018-09-05T20:45:04.376Z,10.30
2018-09-05T20:47:32.864Z,10.87
2018-09-05T20:50:01.508Z,10.60
2018-09-05T20:52:29.967Z,10.07
2018-09-05T20:54:58.423Z,10.10
2018-09-05T20:57:26.875Z,10.67
2018-09-05T20:59:55.400Z,10.60
2018-09-05T21:02:23.864Z,10.77
2018-09-05T21:04:52.331Z,10.73
2018-09-05T21:07:20.819Z,10.50
2018-09-05T21:09:49.304Z,10.70
2018-09-05T21:12:17.743Z,10.83
2018-09-05T21:14:46.208Z,10.50
2018-09-05T21:17:14.715Z,10.37
2018-09-05T21:19:43.209Z,10.17
2018-09-05T21:22:11.643Z,10.83
2018-09-05T21:24:40.100Z,10.80
2018-09-05T21:27:08.592Z,10.90
2018-09-05T21:29:37.025Z,10.83
2018-09-05T21:32:05.555Z,10.43
2018-09-05T21:34:34.011Z,10.47
2018-09-05T21:37:02.551Z,10.73
2018-09-05T21:39:31.015Z,10.50
2018-09-05T21:41:59.460Z,11.20
2018-09-05T21:44:27.895Z,10.40
2018-09-05T21:46:56.355Z,11.27
2018-09-05T21:49:24.787Z,11.13
2018-09-05T21:51:53.296Z,10.80
2018-09-05T21:54:21.729Z,11.27
2018-09-05T21:56:50.196Z,11.03
2018-09-05T21:59:18.627Z,11.57
2018-09-05T22:01:47.090Z,11.10
2018-09-05T22:04:15.580Z,10.63
2018-09-05T22:06:44.081Z,10.40
2018-09-05T22:09:12.540Z,10.23
2018-09-05T22:11:41.159Z,11.20
2018-09-05T22:14:09.512Z,11.37
2018-09-05T22:16:37.971Z,10.77
2018-09-05T22:19:06.519Z,11.83
2018-09-05T22:21:34.983Z,11.43
2018-09-05T22:24:03.452Z,11.77
2018-09-05T22:26:31.892Z,10.53
2018-09-05T22:29:00.348Z,11.20
2018-09-05T22:31:29.008Z,11.30
2018-09-05T22:33:57.499Z,10.93
2018-09-05T22:36:25.956Z,11.20
2018-09-05T22:38:54.423Z,11.13
2018-09-05T22:41:22.864Z,11.20
2018-09-05T22:44:02.760Z,10.73
2018-09-05T22:46:42.430Z,16.00
2018-09-05T22:51:33.910Z,19.20
2018-09-05T23:11:18.579Z,11.80
2018-09-05T23:13:59.037Z,12.23
2018-09-05T23:16:39.381Z,11.23
2018-09-05T23:19:22.973Z,11.60
2018-09-05T23:21:51.426Z,11.33
2018-09-05T23:24:19.897Z,11.80
2018-09-05T23:26:48.377Z,11.20
2018-09-05T23:29:16.857Z,12.00
2018-09-05T23:31:45.340Z,11.13
2018-09-05T23:34:13.811Z,13.00
2018-09-05T23:36:42.273Z,11.23
2018-09-05T23:39:10.777Z,12.40
2018-09-05T23:41:39.256Z,12.83
2018-09-05T23:44:07.725Z,11.43
2018-09-05T23:46:36.237Z,12.80
2018-09-05T23:49:04.724Z,12.80
2018-09-05T23:51:33.220Z,12.57
2018-09-05T23:54:01.688Z,12.20
2018-09-05T23:56:30.242Z,13.10
2018-09-05T23:58:58.765Z,11.70
